Quinsam — VY6800 — position and weather

sailwx.info

Track history (hours):
 
Tides and Currents Weather Stations Pressure Air Temp Water Temp Dewpoint Dewpoint Depression Visibility Wind Speed Wind Dir Waves Ship Positions

Quinsam

Last reported at 2016-Jul-24 00:33 UTC. Time now 2016-Jul-24 01:07 UTC.
Position N 49°11' W 123°52'.

Length 88 m; draft 1.5 m.

Type: Ship. MMSI: 316001266.

Date/timePositionNaut miles runAvg speedWind from/ knotsBaromVisibWave heightAir tempDewpointWater temp
2016-Jul-24 00:33N 49°11' W 123°52'2 1.9
2016-Jul-23 23:33N 49°10' W 123°54'1 0.9
2016-Jul-23 22:31N 49°10' W 123°56'1 1.2
2016-Jul-23 21:33N 49°10' W 123°54'2 1.8
2016-Jul-23 20:34N 49°11' W 123°52'0 0.0
2016-Jul-23 19:33N 49°11' W 123°52'2 2.1
2016-Jul-23 18:33N 49°10' W 123°55'1 0.8
2016-Jul-23 17:29N 49°10' W 123°56'1 0.9
2016-Jul-23 16:33N 49°10' W 123°55'2 2.1
2016-Jul-23 15:33N 49°11' W 123°52'0 0.0
2016-Jul-23 14:33N 49°11' W 123°52'3 2.9
2016-Jul-23 13:33N 49°10' W 123°56'3 0.4
2016-Jul-23 06:22N 49°11' W 123°52'0 0.2
2016-Jul-23 04:33N 49°11' W 123°52'1 1.0
2016-Jul-23 03:34N 49°10' W 123°53'1 1.0
2016-Jul-23 02:33N 49°11' W 123°52'0 0.3
2016-Jul-23 01:33N 49°11' W 123°52'0 0.0
2016-Jul-23 00:25N 49°11' W 123°52'2 2.0
2016-Jul-22 23:33N 49°10' W 123°54'1 1.1
2016-Jul-22 22:28N 49°10' W 123°56'0 0.3
2016-Jul-22 21:33N 49°10' W 123°55'3 2.5
2016-Jul-22 20:33N 49°11' W 123°52'0 0.2
2016-Jul-22 19:33N 49°11' W 123°52'2 2.0
2016-Jul-22 18:34N 49°10' W 123°55'1 0.8
2016-Jul-22 17:27N 49°10' W 123°56'1 0.6
2016-Jul-22 16:33N 49°10' W 123°55'2 2.3
2016-Jul-22 15:33N 49°11' W 123°52'0 0.1
2016-Jul-22 14:33N 49°11' W 123°52'2 2.3
2016-Jul-22 13:34N 49°10' W 123°55'2 0.7
2016-Jul-22 10:22N 49°11' W 123°52'0 0.0
2016-Jul-22 09:16N 49°11' W 123°52'1 0.1
2016-Jul-22 05:33N 49°11' W 123°52'1 0.5
2016-Jul-22 04:30N 49°11' W 123°52'1 1.2
2016-Jul-22 03:34N 49°10' W 123°53'1 1.5
2016-Jul-22 02:33N 49°10' W 123°55'0 0.1
2016-Jul-22 01:33N 49°10' W 123°56'0 0.1
2016-Jul-22 00:31N 49°10' W 123°56'1 0.5
2016-Jul-21 23:33N 49°10' W 123°55'2 2.4
2016-Jul-21 22:33N 49°11' W 123°52'1 1.1
2016-Jul-21 21:32N 49°10' W 123°53'2 1.9
2016-Jul-21 20:34N 49°10' W 123°56'2 2.3
2016-Jul-21 19:33N 49°11' W 123°53'1 0.6
2016-Jul-21 18:32N 49°11' W 123°52'3 2.6
2016-Jul-21 17:33N 49°10' W 123°55'0 0.1
2016-Jul-21 16:14N 49°10' W 123°55'0 0.2
2016-Jul-21 15:20N 49°10' W 123°56'3 3.5
2016-Jul-21 14:31N 49°11' W 123°52'2 2.6
2016-Jul-21 13:33N 49°10' W 123°55'2 0.4
2016-Jul-21 07:19N 49°11' W 123°52'0 0.0
2016-Jul-21 06:25N 49°11' W 123°52'0 0.0
2016-Jul-21 04:29N 49°11' W 123°52'1 1.3
2016-Jul-21 03:33N 49°10' W 123°53'1 0.7
2016-Jul-21 02:32N 49°11' W 123°52'1 0.5
2016-Jul-21 01:29N 49°11' W 123°52'0 0.0
2016-Jul-21 00:32N 49°11' W 123°52'2 2.0
2016-Jul-20 23:34N 49°10' W 123°54'1 0.8
2016-Jul-20 22:26N 49°10' W 123°56'1 0.6
2016-Jul-20 21:33N 49°10' W 123°55'2 1.9
2016-Jul-20 20:33N 49°11' W 123°52'0 0.5
2016-Jul-20 19:33N 49°11' W 123°52'2 2.2
2016-Jul-20 18:33N 49°10' W 123°55'1 0.6
2016-Jul-20 17:29N 49°10' W 123°56'0 0.1
2016-Jul-20 16:33N 49°10' W 123°56'3 2.8
2016-Jul-20 15:33N 49°11' W 123°52'0 0.0
2016-Jul-20 14:33N 49°11' W 123°52'3 2.7
2016-Jul-20 13:33N 49°10' W 123°56'3 2.3
2016-Jul-20 12:23N 49°11' W 123°52'0 0.0
2016-Jul-20 07:11N 49°11' W 123°52'0 0.0
2016-Jul-20 06:22N 49°11' W 123°52'0 0.6
2016-Jul-20 05:33N 49°11' W 123°52'0 0.2
2016-Jul-20 04:32N 49°11' W 123°52'1 0.7
2016-Jul-20 03:33N 49°10' W 123°53'1 0.8
2016-Jul-20 02:33N 49°11' W 123°52'0 0.2
2016-Jul-20 01:33N 49°11' W 123°52'0 0.0
2016-Jul-20 00:32N 49°11' W 123°52'2 1.6
2016-Jul-19 23:33N 49°10' W 123°54'1 1.3
2016-Jul-19 22:30N 49°10' W 123°56'0 0.1
2016-Jul-19 21:22N 49°10' W 123°56'0 0.5
2016-Jul-19 20:33N 49°10' W 123°55'2 2.3
2016-Jul-19 19:33N 49°11' W 123°52'0 0.2
2016-Jul-19 18:31N 49°11' W 123°52'3 2.7
2016-Jul-19 17:32N 49°10' W 123°56'0 0.1
2016-Jul-19 16:33N 49°10' W 123°56'2 1.9
2016-Jul-19 15:30N 49°11' W 123°53'1 1.0
2016-Jul-19 14:33N 49°11' W 123°52'2 2.4
2016-Jul-19 13:33N 49°10' W 123°55'2 0.3
2016-Jul-19 06:29N 49°11' W 123°52'0 0.0
2016-Jul-19 04:27N 49°11' W 123°52'1 0.9
2016-Jul-19 03:32N 49°11' W 123°53'0 0.4
2016-Jul-19 02:30N 49°11' W 123°52'0 0.4
2016-Jul-19 01:32N 49°11' W 123°52'0 0.0
2016-Jul-19 00:33N 49°11' W 123°52'1 0.6
2016-Jul-18 23:34N 49°11' W 123°52'2 2.3
2016-Jul-18 22:33N 49°10' W 123°56'0 0.0
2016-Jul-18 21:16N 49°10' W 123°56'3 3.6
2016-Jul-18 20:33N 49°11' W 123°52'0 0.3
2016-Jul-18 19:31N 49°11' W 123°52'2 2.1
2016-Jul-18 18:33N 49°10' W 123°55'1 0.7
2016-Jul-18 17:26N 49°10' W 123°56'0 0.3
2016-Jul-18 16:33N 49°10' W 123°55'3 2.5
2016-Jul-18 15:33N 49°11' W 123°52'0 0.1
2016-Jul-18 14:29N 49°11' W 123°52'3 3.1
2016-Jul-18 13:33N 49°10' W 123°56'3 0.6
2016-Jul-18 08:18N 49°11' W 123°52'0 0.0
2016-Jul-18 07:30N 49°11' W 123°52'0 0.0
2016-Jul-18 06:20N 49°11' W 123°52'0 0.6
2016-Jul-18 05:32N 49°11' W 123°52'0 0.3
2016-Jul-18 04:33N 49°11' W 123°52'1 0.6
2016-Jul-18 03:33N 49°11' W 123°53'1 0.6
2016-Jul-18 02:33N 49°11' W 123°52'0 0.2
2016-Jul-18 01:33N 49°11' W 123°52'0 0.0
2016-Jul-18 00:25N 49°11' W 123°52'1 1.7
2016-Jul-17 23:33N 49°10' W 123°54'1 1.3
2016-Jul-17 22:26N 49°10' W 123°56'1 0.8
2016-Jul-17 21:33N 49°10' W 123°55'2 2.1
2016-Jul-17 20:32N 49°11' W 123°52'0 0.0
2016-Jul-17 19:33N 49°11' W 123°52'2 2.2
2016-Jul-17 18:33N 49°10' W 123°55'1 0.6
2016-Jul-17 17:28N 49°10' W 123°56'1 1.5
2016-Jul-17 16:33N 49°11' W 123°54'2 1.6
2016-Jul-17 15:32N 49°11' W 123°52'3 3.0
2016-Jul-17 14:33N 49°10' W 123°56'0 0.3
2016-Jul-17 13:33N 49°10' W 123°55'2 0.3
2016-Jul-17 06:15N 49°11' W 123°52'1 0.3
2016-Jul-17 04:29N 49°11' W 123°52'1 0.9
2016-Jul-17 03:33N 49°11' W 123°53'1 0.6
2016-Jul-17 02:32N 49°11' W 123°52'0 0.3
2016-Jul-17 01:25N 49°11' W 123°53'1 0.7
2016-Jul-17 00:28N 49°11' W 123°52'2 1.8
2016-Jul-16 23:33N 49°10' W 123°54'1 1.2
2016-Jul-16 22:32N 49°10' W 123°56'1 0.8
2016-Jul-16 21:33N 49°10' W 123°55'2 1.9
2016-Jul-16 20:33N 49°11' W 123°52'0 0.1
2016-Jul-16 19:22N 49°11' W 123°52'1 1.2
2016-Jul-16 18:33N 49°10' W 123°53'2 1.9
2016-Jul-16 17:33N 49°10' W 123°56'0 0.5
2016-Jul-16 16:33N 49°10' W 123°55'2 2.4
2016-Jul-16 15:33N 49°11' W 123°52'0 0.0
2016-Jul-16 14:26N 49°11' W 123°52'3 3.3
2016-Jul-16 13:33N 49°10' W 123°56'3 1.3
2016-Jul-16 11:15N 49°11' W 123°52'0 0.0
2016-Jul-16 10:27N 49°11' W 123°52'0 0.0
2016-Jul-16 06:24N 49°11' W 123°52'0 0.0
2016-Jul-16 04:31N 49°11' W 123°52'1 1.1
2016-Jul-16 03:33N 49°10' W 123°53'1 0.6
2016-Jul-16 02:34N 49°10' W 123°54'1 1.2
2016-Jul-16 01:33N 49°11' W 123°52'0 0.4
2016-Jul-16 00:32N 49°11' W 123°52'1 0.8
2016-Jul-15 23:33N 49°11' W 123°53'2 2.1
2016-Jul-15 22:33N 49°10' W 123°56'1 1.0
2016-Jul-15 21:33N 49°10' W 123°54'2 1.9
2016-Jul-15 20:33N 49°11' W 123°52'0 0.0
2016-Jul-15 19:33N 49°11' W 123°52'2 2.3
2016-Jul-15 18:33N 49°10' W 123°55'1 0.6
2016-Jul-15 17:33N 49°10' W 123°56'1 1.0
2016-Jul-15 16:34N 49°10' W 123°54'2 1.9
2016-Jul-15 15:33N 49°11' W 123°52'0 0.0
2016-Jul-15 14:33N 49°11' W 123°52'2 2.1
2016-Jul-15 13:33N 49°10' W 123°55'2 1.4
2016-Jul-15 12:04N 49°11' W 123°52'0 0.0
2016-Jul-15 06:24N 49°11' W 123°52'1 0.6
2016-Jul-15 05:34N 49°11' W 123°52'0 0.0
2016-Jul-15 04:33N 49°11' W 123°52'1 0.6
2016-Jul-15 03:33N 49°10' W 123°53'2 1.9
2016-Jul-15 02:33N 49°10' W 123°56'2 1.9
2016-Jul-15 01:33N 49°11' W 123°53'1 1.0
2016-Jul-15 00:31N 49°11' W 123°52'1 1.3
2016-Jul-14 23:33N 49°10' W 123°53'2 1.6
2016-Jul-14 22:33N 49°10' W 123°56'1 1.1
2016-Jul-14 21:33N 49°10' W 123°54'2 1.6
2016-Jul-14 20:28N 49°11' W 123°52'0 0.1
2016-Jul-14 19:14N 49°11' W 123°52'2 3.4
2016-Jul-14 18:33N 49°10' W 123°55'1 0.5
2016-Jul-14 17:23N 49°10' W 123°56'1 1.6
2016-Jul-14 16:34N 49°10' W 123°54'2 1.6
2016-Jul-14 15:33N 49°11' W 123°52'0 0.0
2016-Jul-14 14:32N 49°11' W 123°52'2 2.2
2016-Jul-14 13:33N 49°10' W 123°55'2 1.6
2016-Jul-14 12:13N 49°11' W 123°52'0 0.0
2016-Jul-14 09:13N 49°11' W 123°52'0 0.0
2016-Jul-14 06:26N 49°11' W 123°52'3 3.2
2016-Jul-14 05:31N 49°10' W 123°56'3 3.0
2016-Jul-14 04:33N 49°11' W 123°52'1 1.1
2016-Jul-14 03:33N 49°10' W 123°53'0 0.3
2016-Jul-14 02:33N 49°10' W 123°54'1 0.6
2016-Jul-14 01:33N 49°11' W 123°53'  
Track history (hours):
 
Tides and Currents Weather Stations Pressure Air Temp Water Temp Dewpoint Dewpoint Depression Visibility Wind Speed Wind Dir Waves Ship Positions

Quinsam

Last reported at 2016-Jul-24 00:33 UTC. Time now 2016-Jul-24 01:07 UTC.
Position N 49°11' W 123°52'.

Length 88 m; draft 1.5 m.

Type: Ship. MMSI: 316001266.

Date/timePositionNaut miles runAvg speedWind from/ knotsBaromVisibWave heightAir tempDewpointWater temp
2016-Jul-24 00:33N 49°11' W 123°52'2 1.9
2016-Jul-23 23:33N 49°10' W 123°54'1 0.9
2016-Jul-23 22:31N 49°10' W 123°56'1 1.2
2016-Jul-23 21:33N 49°10' W 123°54'2 1.8
2016-Jul-23 20:34N 49°11' W 123°52'0 0.0
2016-Jul-23 19:33N 49°11' W 123°52'2 2.1
2016-Jul-23 18:33N 49°10' W 123°55'1 0.8
2016-Jul-23 17:29N 49°10' W 123°56'1 0.9
2016-Jul-23 16:33N 49°10' W 123°55'2 2.1
2016-Jul-23 15:33N 49°11' W 123°52'0 0.0
2016-Jul-23 14:33N 49°11' W 123°52'3 2.9
2016-Jul-23 13:33N 49°10' W 123°56'3 0.4
2016-Jul-23 06:22N 49°11' W 123°52'0 0.2
2016-Jul-23 04:33N 49°11' W 123°52'1 1.0
2016-Jul-23 03:34N 49°10' W 123°53'1 1.0
2016-Jul-23 02:33N 49°11' W 123°52'0 0.3
2016-Jul-23 01:33N 49°11' W 123°52'0 0.0
2016-Jul-23 00:25N 49°11' W 123°52'2 2.0
2016-Jul-22 23:33N 49°10' W 123°54'1 1.1
2016-Jul-22 22:28N 49°10' W 123°56'0 0.3
2016-Jul-22 21:33N 49°10' W 123°55'3 2.5
2016-Jul-22 20:33N 49°11' W 123°52'0 0.2
2016-Jul-22 19:33N 49°11' W 123°52'2 2.0
2016-Jul-22 18:34N 49°10' W 123°55'1 0.8
2016-Jul-22 17:27N 49°10' W 123°56'1 0.6
2016-Jul-22 16:33N 49°10' W 123°55'2 2.3
2016-Jul-22 15:33N 49°11' W 123°52'0 0.1
2016-Jul-22 14:33N 49°11' W 123°52'2 2.3
2016-Jul-22 13:34N 49°10' W 123°55'2 0.7
2016-Jul-22 10:22N 49°11' W 123°52'0 0.0
2016-Jul-22 09:16N 49°11' W 123°52'1 0.1
2016-Jul-22 05:33N 49°11' W 123°52'1 0.5
2016-Jul-22 04:30N 49°11' W 123°52'1 1.2
2016-Jul-22 03:34N 49°10' W 123°53'1 1.5
2016-Jul-22 02:33N 49°10' W 123°55'0 0.1
2016-Jul-22 01:33N 49°10' W 123°56'0 0.1
2016-Jul-22 00:31N 49°10' W 123°56'1 0.5
2016-Jul-21 23:33N 49°10' W 123°55'2 2.4
2016-Jul-21 22:33N 49°11' W 123°52'1 1.1
2016-Jul-21 21:32N 49°10' W 123°53'2 1.9
2016-Jul-21 20:34N 49°10' W 123°56'2 2.3
2016-Jul-21 19:33N 49°11' W 123°53'1 0.6
2016-Jul-21 18:32N 49°11' W 123°52'3 2.6
2016-Jul-21 17:33N 49°10' W 123°55'0 0.1
2016-Jul-21 16:14N 49°10' W 123°55'0 0.2
2016-Jul-21 15:20N 49°10' W 123°56'3 3.5
2016-Jul-21 14:31N 49°11' W 123°52'2 2.6
2016-Jul-21 13:33N 49°10' W 123°55'2 0.4
2016-Jul-21 07:19N 49°11' W 123°52'0 0.0
2016-Jul-21 06:25N 49°11' W 123°52'0 0.0
2016-Jul-21 04:29N 49°11' W 123°52'1 1.3
2016-Jul-21 03:33N 49°10' W 123°53'1 0.7
2016-Jul-21 02:32N 49°11' W 123°52'1 0.5
2016-Jul-21 01:29N 49°11' W 123°52'0 0.0
2016-Jul-21 00:32N 49°11' W 123°52'2 2.0
2016-Jul-20 23:34N 49°10' W 123°54'1 0.8
2016-Jul-20 22:26N 49°10' W 123°56'1 0.6
2016-Jul-20 21:33N 49°10' W 123°55'2 1.9
2016-Jul-20 20:33N 49°11' W 123°52'0 0.5
2016-Jul-20 19:33N 49°11' W 123°52'2 2.2
2016-Jul-20 18:33N 49°10' W 123°55'1 0.6
2016-Jul-20 17:29N 49°10' W 123°56'0 0.1
2016-Jul-20 16:33N 49°10' W 123°56'3 2.8
2016-Jul-20 15:33N 49°11' W 123°52'0 0.0
2016-Jul-20 14:33N 49°11' W 123°52'3 2.7
2016-Jul-20 13:33N 49°10' W 123°56'3 2.3
2016-Jul-20 12:23N 49°11' W 123°52'0 0.0
2016-Jul-20 07:11N 49°11' W 123°52'0 0.0
2016-Jul-20 06:22N 49°11' W 123°52'0 0.6
2016-Jul-20 05:33N 49°11' W 123°52'0 0.2
2016-Jul-20 04:32N 49°11' W 123°52'1 0.7
2016-Jul-20 03:33N 49°10' W 123°53'1 0.8
2016-Jul-20 02:33N 49°11' W 123°52'0 0.2
2016-Jul-20 01:33N 49°11' W 123°52'0 0.0
2016-Jul-20 00:32N 49°11' W 123°52'2 1.6
2016-Jul-19 23:33N 49°10' W 123°54'1 1.3
2016-Jul-19 22:30N 49°10' W 123°56'0 0.1
2016-Jul-19 21:22N 49°10' W 123°56'0 0.5
2016-Jul-19 20:33N 49°10' W 123°55'2 2.3
2016-Jul-19 19:33N 49°11' W 123°52'0 0.2
2016-Jul-19 18:31N 49°11' W 123°52'3 2.7
2016-Jul-19 17:32N 49°10' W 123°56'0 0.1
2016-Jul-19 16:33N 49°10' W 123°56'2 1.9
2016-Jul-19 15:30N 49°11' W 123°53'1 1.0
2016-Jul-19 14:33N 49°11' W 123°52'2 2.4
2016-Jul-19 13:33N 49°10' W 123°55'2 0.3
2016-Jul-19 06:29N 49°11' W 123°52'0 0.0
2016-Jul-19 04:27N 49°11' W 123°52'1 0.9
2016-Jul-19 03:32N 49°11' W 123°53'0 0.4
2016-Jul-19 02:30N 49°11' W 123°52'0 0.4
2016-Jul-19 01:32N 49°11' W 123°52'0 0.0
2016-Jul-19 00:33N 49°11' W 123°52'1 0.6
2016-Jul-18 23:34N 49°11' W 123°52'2 2.3
2016-Jul-18 22:33N 49°10' W 123°56'0 0.0
2016-Jul-18 21:16N 49°10' W 123°56'3 3.6
2016-Jul-18 20:33N 49°11' W 123°52'0 0.3
2016-Jul-18 19:31N 49°11' W 123°52'2 2.1
2016-Jul-18 18:33N 49°10' W 123°55'1 0.7
2016-Jul-18 17:26N 49°10' W 123°56'0 0.3
2016-Jul-18 16:33N 49°10' W 123°55'3 2.5
2016-Jul-18 15:33N 49°11' W 123°52'0 0.1
2016-Jul-18 14:29N 49°11' W 123°52'3 3.1
2016-Jul-18 13:33N 49°10' W 123°56'3 0.6
2016-Jul-18 08:18N 49°11' W 123°52'0 0.0
2016-Jul-18 07:30N 49°11' W 123°52'0 0.0
2016-Jul-18 06:20N 49°11' W 123°52'0 0.6
2016-Jul-18 05:32N 49°11' W 123°52'0 0.3
2016-Jul-18 04:33N 49°11' W 123°52'1 0.6
2016-Jul-18 03:33N 49°11' W 123°53'1 0.6
2016-Jul-18 02:33N 49°11' W 123°52'0 0.2
2016-Jul-18 01:33N 49°11' W 123°52'0 0.0
2016-Jul-18 00:25N 49°11' W 123°52'1 1.7
2016-Jul-17 23:33N 49°10' W 123°54'1 1.3
2016-Jul-17 22:26N 49°10' W 123°56'1 0.8
2016-Jul-17 21:33N 49°10' W 123°55'2 2.1
2016-Jul-17 20:32N 49°11' W 123°52'0 0.0
2016-Jul-17 19:33N 49°11' W 123°52'2 2.2
2016-Jul-17 18:33N 49°10' W 123°55'1 0.6
2016-Jul-17 17:28N 49°10' W 123°56'1 1.5
2016-Jul-17 16:33N 49°11' W 123°54'2 1.6
2016-Jul-17 15:32N 49°11' W 123°52'3 3.0
2016-Jul-17 14:33N 49°10' W 123°56'0 0.3
2016-Jul-17 13:33N 49°10' W 123°55'2 0.3
2016-Jul-17 06:15N 49°11' W 123°52'1 0.3
2016-Jul-17 04:29N 49°11' W 123°52'1 0.9
2016-Jul-17 03:33N 49°11' W 123°53'1 0.6
2016-Jul-17 02:32N 49°11' W 123°52'0 0.3
2016-Jul-17 01:25N 49°11' W 123°53'1 0.7
2016-Jul-17 00:28N 49°11' W 123°52'2 1.8
2016-Jul-16 23:33N 49°10' W 123°54'1 1.2
2016-Jul-16 22:32N 49°10' W 123°56'1 0.8
2016-Jul-16 21:33N 49°10' W 123°55'2 1.9
2016-Jul-16 20:33N 49°11' W 123°52'0 0.1
2016-Jul-16 19:22N 49°11' W 123°52'1 1.2
2016-Jul-16 18:33N 49°10' W 123°53'2 1.9
2016-Jul-16 17:33N 49°10' W 123°56'0 0.5
2016-Jul-16 16:33N 49°10' W 123°55'2 2.4
2016-Jul-16 15:33N 49°11' W 123°52'0 0.0
2016-Jul-16 14:26N 49°11' W 123°52'3 3.3
2016-Jul-16 13:33N 49°10' W 123°56'3 1.3
2016-Jul-16 11:15N 49°11' W 123°52'0 0.0
2016-Jul-16 10:27N 49°11' W 123°52'0 0.0
2016-Jul-16 06:24N 49°11' W 123°52'0 0.0
2016-Jul-16 04:31N 49°11' W 123°52'1 1.1
2016-Jul-16 03:33N 49°10' W 123°53'1 0.6
2016-Jul-16 02:34N 49°10' W 123°54'1 1.2
2016-Jul-16 01:33N 49°11' W 123°52'0 0.4
2016-Jul-16 00:32N 49°11' W 123°52'1 0.8
2016-Jul-15 23:33N 49°11' W 123°53'2 2.1
2016-Jul-15 22:33N 49°10' W 123°56'1 1.0
2016-Jul-15 21:33N 49°10' W 123°54'2 1.9
2016-Jul-15 20:33N 49°11' W 123°52'0 0.0
2016-Jul-15 19:33N 49°11' W 123°52'2 2.3
2016-Jul-15 18:33N 49°10' W 123°55'1 0.6
2016-Jul-15 17:33N 49°10' W 123°56'1 1.0
2016-Jul-15 16:34N 49°10' W 123°54'2 1.9
2016-Jul-15 15:33N 49°11' W 123°52'0 0.0
2016-Jul-15 14:33N 49°11' W 123°52'2 2.1
2016-Jul-15 13:33N 49°10' W 123°55'2 1.4
2016-Jul-15 12:04N 49°11' W 123°52'0 0.0
2016-Jul-15 06:24N 49°11' W 123°52'1 0.6
2016-Jul-15 05:34N 49°11' W 123°52'0 0.0
2016-Jul-15 04:33N 49°11' W 123°52'1 0.6
2016-Jul-15 03:33N 49°10' W 123°53'2 1.9
2016-Jul-15 02:33N 49°10' W 123°56'2 1.9
2016-Jul-15 01:33N 49°11' W 123°53'1 1.0
2016-Jul-15 00:31N 49°11' W 123°52'1 1.3
2016-Jul-14 23:33N 49°10' W 123°53'2 1.6
2016-Jul-14 22:33N 49°10' W 123°56'1 1.1
2016-Jul-14 21:33N 49°10' W 123°54'2 1.6
2016-Jul-14 20:28N 49°11' W 123°52'0 0.1
2016-Jul-14 19:14N 49°11' W 123°52'2 3.4
2016-Jul-14 18:33N 49°10' W 123°55'1 0.5
2016-Jul-14 17:23N 49°10' W 123°56'1 1.6
2016-Jul-14 16:34N 49°10' W 123°54'2 1.6
2016-Jul-14 15:33N 49°11' W 123°52'0 0.0
2016-Jul-14 14:32N 49°11' W 123°52'2 2.2
2016-Jul-14 13:33N 49°10' W 123°55'2 1.6
2016-Jul-14 12:13N 49°11' W 123°52'0 0.0
2016-Jul-14 09:13N 49°11' W 123°52'0 0.0
2016-Jul-14 06:26N 49°11' W 123°52'3 3.2
2016-Jul-14 05:31N 49°10' W 123°56'3 3.0
2016-Jul-14 04:33N 49°11' W 123°52'1 1.1
2016-Jul-14 03:33N 49°10' W 123°53'0 0.3
2016-Jul-14 02:33N 49°10' W 123°54'1 0.6
2016-Jul-14 01:33N 49°11' W 123°53'  

Dump ship's entire track history